sensor_id;sensor_type;location;lat;lon;timestamp;temperature;humidity
16114;DHT22;8161;-33.910;151.156;2023-11-21T00:00:44;23.10;99.90
16114;DHT22;8161;-33.910;151.156;2023-11-21T00:03:12;23.30;99.90
16114;DHT22;8161;-33.910;151.156;2023-11-21T00:08:09;23.00;99.90
16114;DHT22;8161;-33.910;151.156;2023-11-21T00:10:37;22.70;99.90
16114;DHT22;8161;-33.910;151.156;2023-11-21T00:13:06;23.90;99.90
16114;DHT22;8161;-33.910;151.156;2023-11-21T00:15:34;23.40;99.90
16114;DHT22;8161;-33.910;151.156;2023-11-21T00:18:01;23.60;99.90
16114;DHT22;8161;-33.910;151.156;2023-11-21T00:20:28;23.50;99.90
16114;DHT22;8161;-33.910;151.156;2023-11-21T00:22:56;23.60;99.90
16114;DHT22;8161;-33.910;151.156;2023-11-21T00:25:23;23.80;99.90
16114;DHT22;8161;-33.910;151.156;2023-11-21T00:30:18;23.80;99.90
16114;DHT22;8161;-33.910;151.156;2023-11-21T00:32:46;23.80;99.90
16114;DHT22;8161;-33.910;151.156;2023-11-21T00:35:13;23.70;99.90
16114;DHT22;8161;-33.910;151.156;2023-11-21T00:37:42;23.80;99.90
16114;DHT22;8161;-33.910;151.156;2023-11-21T00:40:10;23.70;99.90
16114;DHT22;8161;-33.910;151.156;2023-11-21T00:42:37;24.00;99.90
16114;DHT22;8161;-33.910;151.156;2023-11-21T00:45:07;24.00;99.90
16114;DHT22;8161;-33.910;151.156;2023-11-21T00:47:34;23.90;99.90
16114;DHT22;8161;-33.910;151.156;2023-11-21T00:50:01;23.70;99.90
16114;DHT22;8161;-33.910;151.156;2023-11-21T00:52:29;23.70;99.90
16114;DHT22;8161;-33.910;151.156;2023-11-21T00:54:56;23.70;99.90
16114;DHT22;8161;-33.910;151.156;2023-11-21T00:59:55;23.70;99.90
16114;DHT22;8161;-33.910;151.156;2023-11-21T01:02:23;23.40;99.90
16114;DHT22;8161;-33.910;151.156;2023-11-21T01:07:18;23.20;99.90
16114;DHT22;8161;-33.910;151.156;2023-11-21T01:09:47;23.10;99.90
16114;DHT22;8161;-33.910;151.156;2023-11-21T01:12:15;23.10;99.90
16114;DHT22;8161;-33.910;151.156;2023-11-21T01:14:44;23.60;99.90
16114;DHT22;8161;-33.910;151.156;2023-11-21T01:17:12;23.10;99.90
16114;DHT22;8161;-33.910;151.156;2023-11-21T01:24:33;23.50;99.90
16114;DHT22;8161;-33.910;151.156;2023-11-21T01:27:00;23.70;99.90
16114;DHT22;8161;-33.910;151.156;2023-11-21T01:29:28;24.20;99.90
16114;DHT22;8161;-33.910;151.156;2023-11-21T01:34:24;24.20;99.90
16114;DHT22;8161;-33.910;151.156;2023-11-21T01:36:51;24.30;99.90
16114;DHT22;8161;-33.910;151.156;2023-11-21T01:39:18;24.50;99.90
16114;DHT22;8161;-33.910;151.156;2023-11-21T01:44:21;24.60;99.90
16114;DHT22;8161;-33.910;151.156;2023-11-21T01:49:20;24.60;99.90
16114;DHT22;8161;-33.910;151.156;2023-11-21T01:51:48;24.90;99.90
16114;DHT22;8161;-33.910;151.156;2023-11-21T01:54:18;24.60;99.90
16114;DHT22;8161;-33.910;151.156;2023-11-21T01:56:46;25.00;99.90
16114;DHT22;8161;-33.910;151.156;2023-11-21T01:59:20;24.90;99.90
16114;DHT22;8161;-33.910;151.156;2023-11-21T02:01:50;24.90;99.90
16114;DHT22;8161;-33.910;151.156;2023-11-21T02:04:18;25.00;99.90
16114;DHT22;8161;-33.910;151.156;2023-11-21T02:06:47;25.00;99.90
16114;DHT22;8161;-33.910;151.156;2023-11-21T02:09:15;25.00;99.90
16114;DHT22;8161;-33.910;151.156;2023-11-21T02:11:42;25.10;99.90
16114;DHT22;8161;-33.910;151.156;2023-11-21T02:14:10;25.20;99.90
16114;DHT22;8161;-33.910;151.156;2023-11-21T02:16:40;25.20;99.90
16114;DHT22;8161;-33.910;151.156;2023-11-21T02:19:08;25.30;99.90
16114;DHT22;8161;-33.910;151.156;2023-11-21T02:21:37;25.10;99.90
16114;DHT22;8161;-33.910;151.156;2023-11-21T02:24:07;25.20;99.90
16114;DHT22;8161;-33.910;151.156;2023-11-21T02:26:35;25.00;99.90
16114;DHT22;8161;-33.910;151.156;2023-11-21T02:29:02;25.30;99.90
16114;DHT22;8161;-33.910;151.156;2023-11-21T02:31:31;25.60;99.90
16114;DHT22;8161;-33.910;151.156;2023-11-21T02:33:59;25.50;99.90
16114;DHT22;8161;-33.910;151.156;2023-11-21T02:41:22;25.50;99.90
16114;DHT22;8161;-33.910;151.156;2023-11-21T02:43:49;25.50;99.90
16114;DHT22;8161;-33.910;151.156;2023-11-21T02:46:16;25.30;99.90
16114;DHT22;8161;-33.910;151.156;2023-11-21T02:53:38;25.20;99.90
16114;DHT22;8161;-33.910;151.156;2023-11-21T02:58:33;25.10;99.90
16114;DHT22;8161;-33.910;151.156;2023-11-21T03:01:01;25.20;99.90
16114;DHT22;8161;-33.910;151.156;2023-11-21T03:03:28;24.80;99.90
16114;DHT22;8161;-33.910;151.156;2023-11-21T03:05:55;25.00;99.90
16114;DHT22;8161;-33.910;151.156;2023-11-21T03:08:23;25.00;99.90
16114;DHT22;8161;-33.910;151.156;2023-11-21T03:13:17;25.10;99.90
16114;DHT22;8161;-33.910;151.156;2023-11-21T03:15:47;25.20;99.90
16114;DHT22;8161;-33.910;151.156;2023-11-21T03:18:15;25.30;99.90
16114;DHT22;8161;-33.910;151.156;2023-11-21T03:20:44;25.60;99.90
16114;DHT22;8161;-33.910;151.156;2023-11-21T03:23:17;25.90;99.90
16114;DHT22;8161;-33.910;151.156;2023-11-21T03:28:14;26.40;99.90
16114;DHT22;8161;-33.910;151.156;2023-11-21T03:30:41;26.60;99.90
16114;DHT22;8161;-33.910;151.156;2023-11-21T03:33:09;26.80;99.90
16114;DHT22;8161;-33.910;151.156;2023-11-21T03:35:36;26.60;99.90
16114;DHT22;8161;-33.910;151.156;2023-11-21T03:38:03;26.50;99.90
16114;DHT22;8161;-33.910;151.156;2023-11-21T03:40:31;26.20;99.90
16114;DHT22;8161;-33.910;151.156;2023-11-21T03:42:59;26.60;99.90
16114;DHT22;8161;-33.910;151.156;2023-11-21T03:45:26;26.60;99.90
16114;DHT22;8161;-33.910;151.156;2023-11-21T03:47:53;26.70;99.90
16114;DHT22;8161;-33.910;151.156;2023-11-21T03:50:20;27.20;99.90
16114;DHT22;8161;-33.910;151.156;2023-11-21T03:57:43;27.30;99.90
16114;DHT22;8161;-33.910;151.156;2023-11-21T04:00:11;27.50;99.90
16114;DHT22;8161;-33.910;151.156;2023-11-21T04:02:38;27.20;99.90
16114;DHT22;8161;-33.910;151.156;2023-11-21T04:05:07;27.20;99.90
16114;DHT22;8161;-33.910;151.156;2023-11-21T04:07:34;27.00;99.90
16114;DHT22;8161;-33.910;151.156;2023-11-21T04:10:02;27.20;99.90
16114;DHT22;8161;-33.910;151.156;2023-11-21T04:12:29;27.50;99.90
16114;DHT22;8161;-33.910;151.156;2023-11-21T04:14:56;28.10;99.90
16114;DHT22;8161;-33.910;151.156;2023-11-21T04:17:24;28.10;99.90
16114;DHT22;8161;-33.910;151.156;2023-11-21T04:19:51;28.40;99.90
16114;DHT22;8161;-33.910;151.156;2023-11-21T04:22:18;27.80;99.90
16114;DHT22;8161;-33.910;151.156;2023-11-21T04:24:46;28.60;99.90
16114;DHT22;8161;-33.910;151.156;2023-11-21T04:29:40;28.10;99.90
16114;DHT22;8161;-33.910;151.156;2023-11-21T04:32:08;27.90;99.90
16114;DHT22;8161;-33.910;151.156;2023-11-21T04:37:02;27.90;99.90
16114;DHT22;8161;-33.910;151.156;2023-11-21T04:41:59;28.40;99.90
16114;DHT22;8161;-33.910;151.156;2023-11-21T04:44:30;29.10;99.90
16114;DHT22;8161;-33.910;151.156;2023-11-21T04:46:57;29.10;99.90
16114;DHT22;8161;-33.910;151.156;2023-11-21T04:49:24;29.50;99.90
16114;DHT22;8161;-33.910;151.156;2023-11-21T04:51:51;30.00;99.90
16114;DHT22;8161;-33.910;151.156;2023-11-21T04:54:19;30.00;99.90
16114;DHT22;8161;-33.910;151.156;2023-11-21T04:59:13;29.90;99.90
16114;DHT22;8161;-33.910;151.156;2023-11-21T05:01:40;29.90;99.90
16114;DHT22;8161;-33.910;151.156;2023-11-21T05:04:08;30.20;99.90
16114;DHT22;8161;-33.910;151.156;2023-11-21T05:06:35;30.40;99.90
16114;DHT22;8161;-33.910;151.156;2023-11-21T05:09:02;30.50;99.90
16114;DHT22;8161;-33.910;151.156;2023-11-21T05:13:58;30.60;99.90
16114;DHT22;8161;-33.910;151.156;2023-11-21T05:16:27;30.60;99.90
16114;DHT22;8161;-33.910;151.156;2023-11-21T05:21:27;30.80;99.90
16114;DHT22;8161;-33.910;151.156;2023-11-21T05:26:26;30.30;99.90
16114;DHT22;8161;-33.910;151.156;2023-11-21T05:28:54;30.50;99.90
16114;DHT22;8161;-33.910;151.156;2023-11-21T05:31:21;30.30;99.90
16114;DHT22;8161;-33.910;151.156;2023-11-21T05:33:48;30.30;99.90
16114;DHT22;8161;-33.910;151.156;2023-11-21T05:38:43;30.10;99.90
16114;DHT22;8161;-33.910;151.156;2023-11-21T05:41:10;30.40;99.90
16114;DHT22;8161;-33.910;151.156;2023-11-21T05:43:40;30.00;99.90
16114;DHT22;8161;-33.910;151.156;2023-11-21T05:46:07;30.00;99.90
16114;DHT22;8161;-33.910;151.156;2023-11-21T05:48:35;29.90;99.90
16114;DHT22;8161;-33.910;151.156;2023-11-21T05:51:06;29.10;99.90
16114;DHT22;8161;-33.910;151.156;2023-11-21T05:53:33;28.80;99.90
16114;DHT22;8161;-33.910;151.156;2023-11-21T05:56:01;28.50;99.90
16114;DHT22;8161;-33.910;151.156;2023-11-21T05:58:30;28.70;99.90
16114;DHT22;8161;-33.910;151.156;2023-11-21T06:00:57;28.10;99.90
16114;DHT22;8161;-33.910;151.156;2023-11-21T06:03:24;27.90;99.90
16114;DHT22;8161;-33.910;151.156;2023-11-21T06:05:54;27.70;99.90
16114;DHT22;8161;-33.910;151.156;2023-11-21T06:10:49;27.50;99.90
16114;DHT22;8161;-33.910;151.156;2023-11-21T06:13:19;27.40;99.90
16114;DHT22;8161;-33.910;151.156;2023-11-21T06:15:51;27.00;99.90
16114;DHT22;8161;-33.910;151.156;2023-11-21T06:18:18;27.20;99.90
16114;DHT22;8161;-33.910;151.156;2023-11-21T06:20:51;27.30;99.90
16114;DHT22;8161;-33.910;151.156;2023-11-21T06:25:46;27.20;99.90
16114;DHT22;8161;-33.910;151.156;2023-11-21T06:28:14;26.60;99.90
16114;DHT22;8161;-33.910;151.156;2023-11-21T06:30:44;27.00;99.90
16114;DHT22;8161;-33.910;151.156;2023-11-21T06:33:15;27.30;99.90
16114;DHT22;8161;-33.910;151.156;2023-11-21T06:35:42;27.70;99.90
16114;DHT22;8161;-33.910;151.156;2023-11-21T06:38:11;27.50;99.90
16114;DHT22;8161;-33.910;151.156;2023-11-21T06:40:38;27.50;99.90
16114;DHT22;8161;-33.910;151.156;2023-11-21T06:45:34;27.10;99.90
16114;DHT22;8161;-33.910;151.156;2023-11-21T06:48:02;27.00;99.90
16114;DHT22;8161;-33.910;151.156;2023-11-21T06:52:56;26.70;99.90
16114;DHT22;8161;-33.910;151.156;2023-11-21T06:55:23;26.90;99.90
16114;DHT22;8161;-33.910;151.156;2023-11-21T06:57:51;26.60;99.90
16114;DHT22;8161;-33.910;151.156;2023-11-21T07:00:18;26.50;99.90
16114;DHT22;8161;-33.910;151.156;2023-11-21T07:02:48;26.40;99.90
16114;DHT22;8161;-33.910;151.156;2023-11-21T07:05:16;26.30;99.90
16114;DHT22;8161;-33.910;151.156;2023-11-21T07:07:47;26.20;99.90
16114;DHT22;8161;-33.910;151.156;2023-11-21T07:10:15;26.00;99.90
16114;DHT22;8161;-33.910;151.156;2023-11-21T07:12:43;26.20;99.90
16114;DHT22;8161;-33.910;151.156;2023-11-21T07:15:11;26.00;99.90
16114;DHT22;8161;-33.910;151.156;2023-11-21T07:17:42;26.00;99.90
16114;DHT22;8161;-33.910;151.156;2023-11-21T07:20:13;25.80;99.90
16114;DHT22;8161;-33.910;151.156;2023-11-21T07:22:43;25.80;99.90
16114;DHT22;8161;-33.910;151.156;2023-11-21T07:25:11;25.70;99.90
16114;DHT22;8161;-33.910;151.156;2023-11-21T07:27:38;25.40;99.90
16114;DHT22;8161;-33.910;151.156;2023-11-21T07:30:06;25.40;99.90
16114;DHT22;8161;-33.910;151.156;2023-11-21T07:32:36;25.80;99.90
16114;DHT22;8161;-33.910;151.156;2023-11-21T07:35:06;25.30;99.90
16114;DHT22;8161;-33.910;151.156;2023-11-21T07:37:34;25.30;99.90
16114;DHT22;8161;-33.910;151.156;2023-11-21T07:42:29;25.10;99.90
16114;DHT22;8161;-33.910;151.156;2023-11-21T07:44:56;25.30;99.90
16114;DHT22;8161;-33.910;151.156;2023-11-21T07:47:24;24.80;99.90
16114;DHT22;8161;-33.910;151.156;2023-11-21T07:49:54;24.60;99.90
16114;DHT22;8161;-33.910;151.156;2023-11-21T07:52:23;24.70;99.90
16114;DHT22;8161;-33.910;151.156;2023-11-21T07:54:50;24.40;99.90
16114;DHT22;8161;-33.910;151.156;2023-11-21T07:57:17;24.20;99.90
16114;DHT22;8161;-33.910;151.156;2023-11-21T07:59:45;24.20;99.90
16114;DHT22;8161;-33.910;151.156;2023-11-21T08:02:12;24.10;99.90
16114;DHT22;8161;-33.910;151.156;2023-11-21T08:04:39;24.00;99.90
16114;DHT22;8161;-33.910;151.156;2023-11-21T08:07:06;24.10;99.90
16114;DHT22;8161;-33.910;151.156;2023-11-21T08:09:34;24.20;99.90
16114;DHT22;8161;-33.910;151.156;2023-11-21T08:12:01;24.10;99.90
16114;DHT22;8161;-33.910;151.156;2023-11-21T08:14:29;24.70;99.90
16114;DHT22;8161;-33.910;151.156;2023-11-21T08:19:24;24.20;99.90
16114;DHT22;8161;-33.910;151.156;2023-11-21T08:21:52;24.00;99.90
16114;DHT22;8161;-33.910;151.156;2023-11-21T08:24:21;24.10;99.90
16114;DHT22;8161;-33.910;151.156;2023-11-21T08:26:49;23.90;99.90
16114;DHT22;8161;-33.910;151.156;2023-11-21T08:29:17;24.00;99.90
16114;DHT22;8161;-33.910;151.156;2023-11-21T08:31:45;24.40;99.90
16114;DHT22;8161;-33.910;151.156;2023-11-21T08:34:13;24.00;99.90
16114;DHT22;8161;-33.910;151.156;2023-11-21T08:36:44;24.00;99.90
16114;DHT22;8161;-33.910;151.156;2023-11-21T08:41:39;23.60;99.90
16114;DHT22;8161;-33.910;151.156;2023-11-21T08:44:07;24.00;99.90
16114;DHT22;8161;-33.910;151.156;2023-11-21T08:46:35;23.70;99.90
16114;DHT22;8161;-33.910;151.156;2023-11-21T08:49:03;23.70;99.90
16114;DHT22;8161;-33.910;151.156;2023-11-21T08:51:30;23.60;99.90
16114;DHT22;8161;-33.910;151.156;2023-11-21T08:53:58;23.80;99.90
16114;DHT22;8161;-33.910;151.156;2023-11-21T08:56:27;23.70;99.90
16114;DHT22;8161;-33.910;151.156;2023-11-21T08:58:55;23.60;99.90
16114;DHT22;8161;-33.910;151.156;2023-11-21T09:01:22;23.60;99.90
16114;DHT22;8161;-33.910;151.156;2023-11-21T09:06:18;23.50;99.90
16114;DHT22;8161;-33.910;151.156;2023-11-21T09:11:12;23.50;99.90
16114;DHT22;8161;-33.910;151.156;2023-11-21T09:13:40;23.40;99.90
16114;DHT22;8161;-33.910;151.156;2023-11-21T09:16:07;24.00;99.90
16114;DHT22;8161;-33.910;151.156;2023-11-21T09:23:30;23.60;99.90
16114;DHT22;8161;-33.910;151.156;2023-11-21T09:25:58;23.30;99.90
16114;DHT22;8161;-33.910;151.156;2023-11-21T09:28:27;23.80;99.90
16114;DHT22;8161;-33.910;151.156;2023-11-21T09:33:22;23.50;99.90
16114;DHT22;8161;-33.910;151.156;2023-11-21T09:35:51;23.20;99.90
16114;DHT22;8161;-33.910;151.156;2023-11-21T09:38:19;23.30;99.90
16114;DHT22;8161;-33.910;151.156;2023-11-21T09:40:46;22.50;99.90
16114;DHT22;8161;-33.910;151.156;2023-11-21T09:43:17;23.10;99.90
16114;DHT22;8161;-33.910;151.156;2023-11-21T09:45:52;23.40;99.90
16114;DHT22;8161;-33.910;151.156;2023-11-21T09:48:24;23.00;99.90
16114;DHT22;8161;-33.910;151.156;2023-11-21T09:50:54;23.00;99.90
16114;DHT22;8161;-33.910;151.156;2023-11-21T09:53:22;23.10;99.90
16114;DHT22;8161;-33.910;151.156;2023-11-21T09:55:54;23.10;99.90
16114;DHT22;8161;-33.910;151.156;2023-11-21T09:58:23;23.20;99.90
16114;DHT22;8161;-33.910;151.156;2023-11-21T10:00:55;23.00;99.90
16114;DHT22;8161;-33.910;151.156;2023-11-21T10:03:24;23.00;99.90
16114;DHT22;8161;-33.910;151.156;2023-11-21T10:05:54;23.00;99.90
16114;DHT22;8161;-33.910;151.156;2023-11-21T10:08:27;23.10;99.90
16114;DHT22;8161;-33.910;151.156;2023-11-21T10:10:56;22.90;99.90
16114;DHT22;8161;-33.910;151.156;2023-11-21T10:13:23;23.20;99.90
16114;DHT22;8161;-33.910;151.156;2023-11-21T10:15:52;22.90;99.90
16114;DHT22;8161;-33.910;151.156;2023-11-21T10:18:19;23.00;99.90
16114;DHT22;8161;-33.910;151.156;2023-11-21T10:20:49;23.60;99.90
16114;DHT22;8161;-33.910;151.156;2023-11-21T10:23:21;22.80;99.90
16114;DHT22;8161;-33.910;151.156;2023-11-21T10:25:52;23.00;99.90
16114;DHT22;8161;-33.910;151.156;2023-11-21T10:28:19;23.00;99.90
16114;DHT22;8161;-33.910;151.156;2023-11-21T10:30:47;22.90;99.90
16114;DHT22;8161;-33.910;151.156;2023-11-21T10:33:14;22.80;99.90
16114;DHT22;8161;-33.910;151.156;2023-11-21T10:38:22;22.70;99.90
16114;DHT22;8161;-33.910;151.156;2023-11-21T10:40:51;22.80;99.90
16114;DHT22;8161;-33.910;151.156;2023-11-21T10:43:18;23.00;99.90
16114;DHT22;8161;-33.910;151.156;2023-11-21T10:45:45;22.80;99.90
16114;DHT22;8161;-33.910;151.156;2023-11-21T10:48:16;23.20;99.90
16114;DHT22;8161;-33.910;151.156;2023-11-21T10:50:45;23.10;99.90
16114;DHT22;8161;-33.910;151.156;2023-11-21T10:53:12;22.70;99.90
16114;DHT22;8161;-33.910;151.156;2023-11-21T10:58:07;22.40;99.90
16114;DHT22;8161;-33.910;151.156;2023-11-21T11:00:38;22.50;99.90
16114;DHT22;8161;-33.910;151.156;2023-11-21T11:03:07;22.70;99.90
16114;DHT22;8161;-33.910;151.156;2023-11-21T11:05:42;22.60;99.90
16114;DHT22;8161;-33.910;151.156;2023-11-21T11:08:20;22.50;99.90
16114;DHT22;8161;-33.910;151.156;2023-11-21T11:10:53;22.50;99.90
16114;DHT22;8161;-33.910;151.156;2023-11-21T11:13:20;22.50;99.90
16114;DHT22;8161;-33.910;151.156;2023-11-21T11:15:48;21.90;99.90
16114;DHT22;8161;-33.910;151.156;2023-11-21T11:18:16;22.50;99.90
16114;DHT22;8161;-33.910;151.156;2023-11-21T11:20:45;22.70;99.90
16114;DHT22;8161;-33.910;151.156;2023-11-21T11:31:47;22.60;99.90
16114;DHT22;8161;-33.910;151.156;2023-11-21T11:34:41;22.40;99.90
16114;DHT22;8161;-33.910;151.156;2023-11-21T11:37:11;22.10;99.90
16114;DHT22;8161;-33.910;151.156;2023-11-21T11:39:43;22.50;99.90
16114;DHT22;8161;-33.910;151.156;2023-11-21T11:42:16;22.30;99.90
16114;DHT22;8161;-33.910;151.156;2023-11-21T11:47:29;22.40;99.90
16114;DHT22;8161;-33.910;151.156;2023-11-21T11:50:10;22.30;99.90
16114;DHT22;8161;-33.910;151.156;2023-11-21T11:52:50;22.40;99.90
16114;DHT22;8161;-33.910;151.156;2023-11-21T11:55:24;22.10;99.90
16114;DHT22;8161;-33.910;151.156;2023-11-21T11:57:55;22.50;99.90
16114;DHT22;8161;-33.910;151.156;2023-11-21T12:02:59;22.80;99.90
16114;DHT22;8161;-33.910;151.156;2023-11-21T12:05:33;22.30;99.90
16114;DHT22;8161;-33.910;151.156;2023-11-21T12:08:06;21.90;99.90
16114;DHT22;8161;-33.910;151.156;2023-11-21T12:10:36;22.10;99.90
16114;DHT22;8161;-33.910;151.156;2023-11-21T12:15:37;22.30;99.90
16114;DHT22;8161;-33.910;151.156;2023-11-21T12:18:05;22.00;99.90
16114;DHT22;8161;-33.910;151.156;2023-11-21T12:20:33;22.10;99.90
16114;DHT22;8161;-33.910;151.156;2023-11-21T12:23:06;22.10;99.90
16114;DHT22;8161;-33.910;151.156;2023-11-21T12:25:35;22.70;99.90
16114;DHT22;8161;-33.910;151.156;2023-11-21T12:28:03;21.90;99.90
16114;DHT22;8161;-33.910;151.156;2023-11-21T12:30:34;22.10;99.90
16114;DHT22;8161;-33.910;151.156;2023-11-21T12:33:03;21.90;99.90
16114;DHT22;8161;-33.910;151.156;2023-11-21T12:35:34;22.10;99.90
16114;DHT22;8161;-33.910;151.156;2023-11-21T12:38:03;22.10;99.90
16114;DHT22;8161;-33.910;151.156;2023-11-21T12:40:31;22.00;99.90
16114;DHT22;8161;-33.910;151.156;2023-11-21T12:43:00;22.70;99.90
16114;DHT22;8161;-33.910;151.156;2023-11-21T12:45:28;22.00;99.90
16114;DHT22;8161;-33.910;151.156;2023-11-21T12:50:28;22.10;99.90
16114;DHT22;8161;-33.910;151.156;2023-11-21T12:53:00;22.20;99.90
16114;DHT22;8161;-33.910;151.156;2023-11-21T12:55:33;21.90;99.90
16114;DHT22;8161;-33.910;151.156;2023-11-21T12:58:05;22.00;99.90
16114;DHT22;8161;-33.910;151.156;2023-11-21T13:00:43;21.90;99.90
16114;DHT22;8161;-33.910;151.156;2023-11-21T13:03:16;22.40;99.90
16114;DHT22;8161;-33.910;151.156;2023-11-21T13:05:47;22.20;99.90
16114;DHT22;8161;-33.910;151.156;2023-11-21T13:08:21;22.00;99.90
16114;DHT22;8161;-33.910;151.156;2023-11-21T13:10:53;22.10;99.90
16114;DHT22;8161;-33.910;151.156;2023-11-21T13:13:27;21.90;99.90
16114;DHT22;8161;-33.910;151.156;2023-11-21T13:16:02;22.10;99.90
16114;DHT22;8161;-33.910;151.156;2023-11-21T13:18:33;21.90;99.90
16114;DHT22;8161;-33.910;151.156;2023-11-21T13:23:43;22.70;99.90
16114;DHT22;8161;-33.910;151.156;2023-11-21T13:26:12;21.70;99.90
16114;DHT22;8161;-33.910;151.156;2023-11-21T13:28:41;22.10;99.90
16114;DHT22;8161;-33.910;151.156;2023-11-21T13:31:12;21.90;99.90
16114;DHT22;8161;-33.910;151.156;2023-11-21T13:33:58;21.90;99.90
16114;DHT22;8161;-33.910;151.156;2023-11-21T13:36:32;21.90;99.90
16114;DHT22;8161;-33.910;151.156;2023-11-21T13:39:02;22.20;99.90
16114;DHT22;8161;-33.910;151.156;2023-11-21T13:41:41;21.90;99.90
16114;DHT22;8161;-33.910;151.156;2023-11-21T13:44:09;22.00;99.90
16114;DHT22;8161;-33.910;151.156;2023-11-21T13:46:52;21.90;99.90
16114;DHT22;8161;-33.910;151.156;2023-11-21T13:49:19;22.70;99.90
16114;DHT22;8161;-33.910;151.156;2023-11-21T13:54:18;22.00;99.90
16114;DHT22;8161;-33.910;151.156;2023-11-21T13:56:47;22.10;99.90
16114;DHT22;8161;-33.910;151.156;2023-11-21T13:59:17;21.90;99.90
16114;DHT22;8161;-33.910;151.156;2023-11-21T14:01:56;22.30;99.90
16114;DHT22;8161;-33.910;151.156;2023-11-21T14:04:27;21.80;99.90
16114;DHT22;8161;-33.910;151.156;2023-11-21T14:06:59;22.10;99.90
16114;DHT22;8161;-33.910;151.156;2023-11-21T14:12:15;21.90;99.90
16114;DHT22;8161;-33.910;151.156;2023-11-21T14:14:43;22.10;99.90
16114;DHT22;8161;-33.910;151.156;2023-11-21T14:17:11;22.20;99.90
16114;DHT22;8161;-33.910;151.156;2023-11-21T14:19:39;22.00;99.90
16114;DHT22;8161;-33.910;151.156;2023-11-21T14:22:10;21.80;99.90
16114;DHT22;8161;-33.910;151.156;2023-11-21T14:24:38;21.90;99.90
16114;DHT22;8161;-33.910;151.156;2023-11-21T14:27:10;22.20;99.90
16114;DHT22;8161;-33.910;151.156;2023-11-21T14:29:37;21.90;99.90
16114;DHT22;8161;-33.910;151.156;2023-11-21T14:32:08;21.70;99.90
16114;DHT22;8161;-33.910;151.156;2023-11-21T14:34:36;22.00;99.90
16114;DHT22;8161;-33.910;151.156;2023-11-21T14:39:30;22.00;99.90
16114;DHT22;8161;-33.910;151.156;2023-11-21T14:42:01;22.40;99.90
16114;DHT22;8161;-33.910;151.156;2023-11-21T14:44:29;21.80;99.90
16114;DHT22;8161;-33.910;151.156;2023-11-21T14:47:02;22.00;99.90
16114;DHT22;8161;-33.910;151.156;2023-11-21T14:49:33;21.80;99.90
16114;DHT22;8161;-33.910;151.156;2023-11-21T14:55:02;21.90;99.90
16114;DHT22;8161;-33.910;151.156;2023-11-21T14:57:43;22.20;99.90
16114;DHT22;8161;-33.910;151.156;2023-11-21T15:00:17;21.70;99.90
16114;DHT22;8161;-33.910;151.156;2023-11-21T15:05:24;22.30;99.90
16114;DHT22;8161;-33.910;151.156;2023-11-21T15:07:54;21.70;99.90
16114;DHT22;8161;-33.910;151.156;2023-11-21T15:10:24;22.00;99.90
16114;DHT22;8161;-33.910;151.156;2023-11-21T15:18:07;21.90;99.90
16114;DHT22;8161;-33.910;151.156;2023-11-21T15:20:40;21.90;99.90
16114;DHT22;8161;-33.910;151.156;2023-11-21T15:23:09;21.90;99.90
16114;DHT22;8161;-33.910;151.156;2023-11-21T15:25:39;22.00;99.90
16114;DHT22;8161;-33.910;151.156;2023-11-21T15:28:06;21.60;99.90
16114;DHT22;8161;-33.910;151.156;2023-11-21T15:30:33;22.50;99.90
16114;DHT22;8161;-33.910;151.156;2023-11-21T15:33:01;21.80;99.90
16114;DHT22;8161;-33.910;151.156;2023-11-21T15:35:30;21.50;99.90
16114;DHT22;8161;-33.910;151.156;2023-11-21T15:37:59;22.00;99.90
16114;DHT22;8161;-33.910;151.156;2023-11-21T15:40:26;21.90;99.90
16114;DHT22;8161;-33.910;151.156;2023-11-21T15:42:53;21.80;99.90
16114;DHT22;8161;-33.910;151.156;2023-11-21T15:50:18;21.60;99.90
16114;DHT22;8161;-33.910;151.156;2023-11-21T15:52:45;21.60;99.90
16114;DHT22;8161;-33.910;151.156;2023-11-21T15:57:40;21.30;99.90
16114;DHT22;8161;-33.910;151.156;2023-11-21T16:00:09;21.50;99.90
16114;DHT22;8161;-33.910;151.156;2023-11-21T16:05:10;21.80;99.90
16114;DHT22;8161;-33.910;151.156;2023-11-21T16:07:41;21.70;99.90
16114;DHT22;8161;-33.910;151.156;2023-11-21T16:10:11;21.70;99.90
16114;DHT22;8161;-33.910;151.156;2023-11-21T16:12:41;21.40;99.90
16114;DHT22;8161;-33.910;151.156;2023-11-21T16:15:09;21.20;99.90
16114;DHT22;8161;-33.910;151.156;2023-11-21T16:17:37;21.40;99.90
16114;DHT22;8161;-33.910;151.156;2023-11-21T16:20:05;21.60;99.90
16114;DHT22;8161;-33.910;151.156;2023-11-21T16:22:37;21.60;99.90
16114;DHT22;8161;-33.910;151.156;2023-11-21T16:25:05;21.40;99.90
16114;DHT22;8161;-33.910;151.156;2023-11-21T16:27:38;21.00;99.90
16114;DHT22;8161;-33.910;151.156;2023-11-21T16:30:07;20.90;99.90
16114;DHT22;8161;-33.910;151.156;2023-11-21T16:32:38;21.20;99.90
16114;DHT22;8161;-33.910;151.156;2023-11-21T16:35:06;21.00;99.90
16114;DHT22;8161;-33.910;151.156;2023-11-21T16:40:02;21.10;99.90
16114;DHT22;8161;-33.910;151.156;2023-11-21T16:42:36;21.30;99.90
16114;DHT22;8161;-33.910;151.156;2023-11-21T16:45:05;20.80;99.90
16114;DHT22;8161;-33.910;151.156;2023-11-21T16:52:30;20.90;99.90
16114;DHT22;8161;-33.910;151.156;2023-11-21T16:54:57;20.60;99.90
16114;DHT22;8161;-33.910;151.156;2023-11-21T16:57:25;20.80;99.90
16114;DHT22;8161;-33.910;151.156;2023-11-21T16:59:52;20.70;99.90
16114;DHT22;8161;-33.910;151.156;2023-11-21T17:02:20;20.90;99.90
16114;DHT22;8161;-33.910;151.156;2023-11-21T17:04:47;20.70;99.90
16114;DHT22;8161;-33.910;151.156;2023-11-21T17:07:16;21.00;99.90
16114;DHT22;8161;-33.910;151.156;2023-11-21T17:14:44;20.80;99.90
16114;DHT22;8161;-33.910;151.156;2023-11-21T17:17:12;20.80;99.90
16114;DHT22;8161;-33.910;151.156;2023-11-21T17:19:40;20.70;99.90
16114;DHT22;8161;-33.910;151.156;2023-11-21T17:22:07;20.70;99.90
16114;DHT22;8161;-33.910;151.156;2023-11-21T17:24:35;20.80;99.90
16114;DHT22;8161;-33.910;151.156;2023-11-21T17:27:05;20.70;99.90
16114;DHT22;8161;-33.910;151.156;2023-11-21T17:29:32;20.80;99.90
16114;DHT22;8161;-33.910;151.156;2023-11-21T17:32:00;20.50;99.90
16114;DHT22;8161;-33.910;151.156;2023-11-21T17:34:27;20.50;99.90
16114;DHT22;8161;-33.910;151.156;2023-11-21T17:36:54;20.50;99.90
16114;DHT22;8161;-33.910;151.156;2023-11-21T17:39:22;20.80;99.90
16114;DHT22;8161;-33.910;151.156;2023-11-21T17:41:49;20.40;99.90
16114;DHT22;8161;-33.910;151.156;2023-11-21T17:44:16;21.00;99.90
16114;DHT22;8161;-33.910;151.156;2023-11-21T17:49:11;20.30;99.90
16114;DHT22;8161;-33.910;151.156;2023-11-21T17:51:39;20.70;99.90
16114;DHT22;8161;-33.910;151.156;2023-11-21T17:54:07;20.50;99.90
16114;DHT22;8161;-33.910;151.156;2023-11-21T17:56:35;20.70;99.90